Time,TemperatureF,DewpointF,PressureIn,WindDirection,WindDirectionDegrees,WindSpeedMPH,WindSpeedGustMPH,Humidity,HourlyPrecipIn,Conditions,Clouds,dailyrainin,SoftwareType,DateUTC
2013-02-23 00:05:00,27.4,17.0,29.70,ENE,72,1.0,2.0,65,0.00,,,0.00,weatherlink.com 1.10,2013-02-23 07:05:00,
2013-02-23 00:20:00,27.4,18.0,29.69,ENE,72,0.0,0.0,68,0.00,,,0.00,weatherlink.com 1.10,2013-02-23 07:20:00,
2013-02-23 00:35:00,27.7,17.0,29.69,SE,137,0.0,1.0,65,0.00,,,0.00,weatherlink.com 1.10,2013-02-23 07:35:00,
2013-02-23 00:50:00,28.1,17.0,29.68,SE,137,0.0,0.0,64,0.00,,,0.00,weatherlink.com 1.10,2013-02-23 07:50:00,
2013-02-23 01:05:00,27.6,18.0,29.68,West,265,0.0,1.0,68,0.00,,,0.00,weatherlink.com 1.10,2013-02-23 08:05:00,
2013-02-23 01:21:00,26.7,18.0,29.67,East,94,1.0,2.0,69,0.00,,,0.00,weatherlink.com 1.10,2013-02-23 08:21:00,
2013-02-23 01:36:00,27.8,19.0,29.67,SSE,147,1.0,2.0,69,0.00,,,0.00,weatherlink.com 1.10,2013-02-23 08:36:00,
2013-02-23 01:51:00,28.8,18.0,29.66,ESE,103,0.0,2.0,65,0.00,,,0.00,weatherlink.com 1.10,2013-02-23 08:51:00,
2013-02-23 02:06:00,29.4,18.0,29.66,WSW,246,1.0,1.0,63,0.00,,,0.00,weatherlink.com 1.10,2013-02-23 09:06:00,
2013-02-23 02:21:00,28.7,18.0,29.66,WNW,290,0.0,2.0,65,0.00,,,0.00,weatherlink.com 1.10,2013-02-23 09:21:00,
2013-02-23 02:36:00,28.4,19.0,29.66,East,98,0.0,1.0,69,0.00,,,0.00,weatherlink.com 1.10,2013-02-23 09:36:00,
2013-02-23 02:51:00,28.8,19.0,29.66,ESE,107,0.0,1.0,66,0.00,,,0.00,weatherlink.com 1.10,2013-02-23 09:51:00,
2013-02-23 03:06:00,28.6,18.0,29.65,SSE,167,0.0,1.0,66,0.00,,,0.00,weatherlink.com 1.10,2013-02-23 10:06:00,
2013-02-23 03:21:00,28.6,18.0,29.65,SW,217,1.0,1.0,66,0.00,,,0.00,weatherlink.com 1.10,2013-02-23 10:21:00,
2013-02-23 03:36:00,28.3,19.0,29.64,West,266,0.0,2.0,68,0.00,,,0.00,weatherlink.com 1.10,2013-02-23 10:36:00,
2013-02-23 03:51:00,28.3,19.0,29.64,WNW,290,0.0,2.0,68,0.00,,,0.00,weatherlink.com 1.10,2013-02-23 10:51:00,
2013-02-23 04:06:00,28.7,19.0,29.64,North,2,0.0,2.0,68,0.00,,,0.00,weatherlink.com 1.10,2013-02-23 11:06:00,
2013-02-23 04:21:00,29.0,19.0,29.64,East,101,0.0,1.0,67,0.00,,,0.00,weatherlink.com 1.10,2013-02-23 11:21:00,
2013-02-23 04:36:00,29.4,19.0,29.64,SE,136,0.0,2.0,65,0.00,,,0.00,weatherlink.com 1.10,2013-02-23 11:36:00,
2013-02-23 04:51:00,29.8,18.0,29.64,SE,136,0.0,1.0,63,0.00,,,0.00,weatherlink.com 1.10,2013-02-23 11:51:00,
2013-02-23 05:06:00,29.8,19.0,29.64,West,264,1.0,2.0,64,0.00,,,0.00,weatherlink.com 1.10,2013-02-23 12:06:00,
2013-02-23 05:21:00,30.3,19.0,29.64,West,261,0.0,1.0,62,0.00,,,0.00,weatherlink.com 1.10,2013-02-23 12:21:00,
2013-02-23 05:36:00,30.4,19.0,29.64,WSW,238,1.0,2.0,62,0.00,,,0.00,weatherlink.com 1.10,2013-02-23 12:36:00,
2013-02-23 05:51:00,29.5,20.0,29.64,ESE,111,0.0,1.0,67,0.00,,,0.00,weatherlink.com 1.10,2013-02-23 12:51:00,
2013-02-23 06:06:00,29.9,19.0,29.64,SSW,213,1.0,2.0,64,0.00,,,0.00,weatherlink.com 1.10,2013-02-23 13:06:00,
2013-02-23 06:21:00,30.4,19.0,29.64,WSW,237,0.0,2.0,63,0.00,,,0.00,weatherlink.com 1.10,2013-02-23 13:21:00,
2013-02-23 06:36:00,30.3,19.0,29.64,NNW,328,2.0,2.0,63,0.00,,,0.00,weatherlink.com 1.10,2013-02-23 13:36:00,
2013-02-23 06:51:00,30.5,19.0,29.64,WNW,285,1.0,2.0,63,0.00,,,0.00,weatherlink.com 1.10,2013-02-23 13:51:00,
2013-02-23 07:06:00,30.5,20.0,29.64,West,271,0.0,2.0,64,0.00,,,0.00,weatherlink.com 1.10,2013-02-23 14:06:00,
2013-02-23 07:21:00,30.5,20.0,29.65,WSW,242,0.0,1.0,64,0.00,,,0.00,weatherlink.com 1.10,2013-02-23 14:21:00,
2013-02-23 07:36:00,30.3,21.0,29.66,WSW,245,0.0,0.0,68,0.00,,,0.00,weatherlink.com 1.10,2013-02-23 14:36:00,
2013-02-23 07:51:00,30.0,21.0,29.66,WSW,237,0.0,0.0,68,0.00,,,0.00,weatherlink.com 1.10,2013-02-23 14:51:00,
2013-02-23 08:06:00,30.5,20.0,29.66,WSW,237,0.0,0.0,66,0.00,,,0.00,weatherlink.com 1.10,2013-02-23 15:06:00,
2013-02-23 08:21:00,31.4,21.0,29.67,SW,234,2.0,3.0,65,0.00,,,0.00,weatherlink.com 1.10,2013-02-23 15:21:00,
2013-02-23 08:36:00,31.8,22.0,29.67,West,271,0.0,2.0,66,0.00,,,0.00,weatherlink.com 1.10,2013-02-23 15:36:00,
2013-02-23 08:51:00,32.8,21.0,29.68,WSW,253,4.0,5.0,63,0.00,,,0.00,weatherlink.com 1.10,2013-02-23 15:51:00,
2013-02-23 09:06:00,33.8,21.0,29.68,WSW,243,0.0,4.0,61,0.00,,,0.00,weatherlink.com 1.10,2013-02-23 16:06:00,
2013-02-23 09:21:00,34.7,22.0,29.69,WSW,250,1.0,5.0,59,0.00,,,0.00,weatherlink.com 1.10,2013-02-23 16:21:00,
2013-02-23 09:36:00,36.1,22.0,29.69,WSW,251,6.0,9.0,58,0.00,,,0.00,weatherlink.com 1.10,2013-02-23 16:36:00,
2013-02-23 09:51:00,37.5,25.0,29.69,SW,233,4.0,7.0,62,0.00,,,0.00,weatherlink.com 1.10,2013-02-23 16:51:00,
2013-02-23 10:06:00,39.1,30.0,29.69,NW,309,14.0,14.0,71,0.00,,,0.00,weatherlink.com 1.10,2013-02-23 17:06:00,
2013-02-23 10:22:00,40.2,33.0,29.70,WNW,298,7.0,11.0,74,0.00,,,0.00,weatherlink.com 1.10,2013-02-23 17:22:00,
2013-02-23 10:37:00,39.7,32.0,29.70,WNW,293,9.0,16.0,73,0.00,,,0.00,weatherlink.com 1.10,2013-02-23 17:37:00,
2013-02-23 10:52:00,39.1,32.0,29.70,WNW,302,6.0,13.0,77,0.00,,,0.00,weatherlink.com 1.10,2013-02-23 17:52:00,
2013-02-23 11:07:00,39.3,32.0,29.70,West,276,6.0,8.0,75,0.00,,,0.00,weatherlink.com 1.10,2013-02-23 18:07:00,
2013-02-23 11:22:00,39.4,31.0,29.70,West,259,7.0,11.0,73,0.00,,,0.00,weatherlink.com 1.10,2013-02-23 18:22:00,
2013-02-23 11:37:00,40.5,31.0,29.70,WNW,298,7.0,9.0,68,0.00,,,0.00,weatherlink.com 1.10,2013-02-23 18:37:00,
2013-02-23 11:52:00,41.5,30.0,29.71,WSW,256,7.0,12.0,65,0.00,,,0.00,weatherlink.com 1.10,2013-02-23 18:52:00,
2013-02-23 12:07:00,41.4,30.0,29.71,NW,310,11.0,14.0,65,0.00,,,0.00,weatherlink.com 1.10,2013-02-23 19:07:00,
2013-02-23 12:22:00,40.5,31.0,29.71,NW,304,16.0,20.0,70,0.00,,,0.00,weatherlink.com 1.10,2013-02-23 19:22:00,
2013-02-23 12:37:00,39.0,32.0,29.72,NW,314,13.0,20.0,76,0.00,,,0.00,weatherlink.com 1.10,2013-02-23 19:37:00,
2013-02-23 12:52:00,37.4,32.0,29.72,NW,311,11.0,21.0,82,0.00,,,0.00,weatherlink.com 1.10,2013-02-23 19:52:00,
2013-02-23 13:07:00,36.1,33.0,29.72,West,274,7.0,17.0,87,0.00,,,0.00,weatherlink.com 1.10,2013-02-23 20:07:00,
2013-02-23 13:22:00,35.3,32.0,29.72,WNW,300,9.0,14.0,88,0.01,,,0.01,weatherlink.com 1.10,2013-02-23 20:22:00,
2013-02-23 13:37:00,35.7,33.0,29.72,West,262,6.0,13.0,88,0.01,,,0.01,weatherlink.com 1.10,2013-02-23 20:37:00,
2013-02-23 13:52:00,35.6,32.0,29.72,WNW,300,10.0,17.0,86,0.01,,,0.01,weatherlink.com 1.10,2013-02-23 20:52:00,
2013-02-23 14:07:00,34.6,32.0,29.72,WSW,254,7.0,11.0,91,0.01,,,0.01,weatherlink.com 1.10,2013-02-23 21:07:00,
2013-02-23 14:22:00,34.3,32.0,29.73,WSW,257,5.0,10.0,90,0.00,,,0.01,weatherlink.com 1.10,2013-02-23 21:22:00,
2013-02-23 14:37:00,34.4,32.0,29.73,WSW,251,4.0,9.0,91,0.00,,,0.01,weatherlink.com 1.10,2013-02-23 21:37:00,
2013-02-23 14:52:00,34.6,32.0,29.74,WSW,238,2.0,6.0,91,0.00,,,0.01,weatherlink.com 1.10,2013-02-23 21:52:00,
2013-02-23 15:07:00,34.6,32.0,29.75,West,259,7.0,8.0,90,0.00,,,0.01,weatherlink.com 1.10,2013-02-23 22:07:00,
2013-02-23 15:22:00,34.2,32.0,29.76,WSW,256,6.0,6.0,91,0.01,,,0.02,weatherlink.com 1.10,2013-02-23 22:22:00,
2013-02-23 15:37:00,33.4,31.0,29.77,NW,304,6.0,7.0,92,0.02,,,0.03,weatherlink.com 1.10,2013-02-23 22:37:00,
2013-02-23 15:52:00,33.0,31.0,29.78,North,354,6.0,12.0,92,0.03,,,0.04,weatherlink.com 1.10,2013-02-23 22:52:00,
2013-02-23 16:07:00,32.7,31.0,29.79,WNW,302,3.0,3.0,94,0.03,,,0.04,weatherlink.com 1.10,2013-02-23 23:07:00,
2013-02-23 16:22:00,32.4,31.0,29.81,WNW,296,0.0,2.0,94,0.02,,,0.04,weatherlink.com 1.10,2013-02-23 23:22:00,
2013-02-23 16:37:00,32.0,31.0,29.81,WSW,243,2.0,3.0,95,0.01,,,0.04,weatherlink.com 1.10,2013-02-23 23:37:00,
2013-02-23 16:52:00,32.3,31.0,29.82,WSW,240,0.0,1.0,95,0.00,,,0.04,weatherlink.com 1.10,2013-02-23 23:52:00,
2013-02-23 17:07:00,32.7,31.0,29.83,WSW,237,1.0,3.0,94,0.00,,,0.04,weatherlink.com 1.10,2013-02-24 00:07:00,
2013-02-23 17:22:00,32.6,31.0,29.84,SSW,205,0.0,2.0,94,0.00,,,0.04,weatherlink.com 1.10,2013-02-24 00:22:00,
2013-02-23 17:37:00,32.8,31.0,29.85,South,176,0.0,1.0,93,0.00,,,0.04,weatherlink.com 1.10,2013-02-24 00:37:00,
2013-02-23 17:53:00,32.8,31.0,29.86,SSE,166,3.0,3.0,92,0.00,,,0.04,weatherlink.com 1.10,2013-02-24 00:53:00,
2013-02-23 18:08:00,32.5,31.0,29.86,SE,144,1.0,3.0,93,0.00,,,0.04,weatherlink.com 1.10,2013-02-24 01:08:00,
2013-02-23 18:23:00,32.4,31.0,29.87,South,178,0.0,1.0,94,0.00,,,0.04,weatherlink.com 1.10,2013-02-24 01:23:00,
2013-02-23 18:38:00,32.1,31.0,29.89,West,267,1.0,3.0,94,0.00,,,0.04,weatherlink.com 1.10,2013-02-24 01:38:00,
2013-02-23 18:53:00,32.4,30.0,29.89,WSW,250,2.0,4.0,92,0.00,,,0.04,weatherlink.com 1.10,2013-02-24 01:53:00,
2013-02-23 19:08:00,32.7,30.0,29.89,SE,142,5.0,5.0,91,0.00,,,0.04,weatherlink.com 1.10,2013-02-24 02:08:00,
2013-02-23 19:23:00,32.7,30.0,29.91,WSW,247,4.0,7.0,91,0.00,,,0.04,weatherlink.com 1.10,2013-02-24 02:23:00,
2013-02-23 19:38:00,32.5,30.0,29.92,West,261,1.0,4.0,91,0.00,,,0.04,weatherlink.com 1.10,2013-02-24 02:38:00,
2013-02-23 19:53:00,32.6,30.0,29.93,WSW,242,2.0,2.0,91,0.00,,,0.04,weatherlink.com 1.10,2013-02-24 02:53:00,
2013-02-23 20:08:00,32.4,30.0,29.94,WSW,257,0.0,1.0,92,0.00,,,0.04,weatherlink.com 1.10,2013-02-24 03:08:00,
2013-02-23 20:23:00,31.9,30.0,29.94,WNW,285,0.0,1.0,93,0.00,,,0.04,weatherlink.com 1.10,2013-02-24 03:23:00,
2013-02-23 20:38:00,31.9,30.0,29.95,SW,224,0.0,1.0,92,0.00,,,0.04,weatherlink.com 1.10,2013-02-24 03:38:00,
2013-02-23 20:53:00,32.0,30.0,29.96,WSW,255,2.0,4.0,91,0.00,,,0.04,weatherlink.com 1.10,2013-02-24 03:53:00,
2013-02-23 21:08:00,32.0,29.0,29.96,SW,231,2.0,6.0,89,0.00,,,0.04,weatherlink.com 1.10,2013-02-24 04:08:00,
2013-02-23 21:23:00,31.6,29.0,29.97,WNW,283,2.0,4.0,89,0.00,,,0.04,weatherlink.com 1.10,2013-02-24 04:23:00,
2013-02-23 21:38:00,31.3,28.0,29.97,West,271,3.0,5.0,88,0.00,,,0.04,weatherlink.com 1.10,2013-02-24 04:38:00,
2013-02-23 21:53:00,30.9,28.0,29.98,WSW,249,6.0,6.0,88,0.00,,,0.04,weatherlink.com 1.10,2013-02-24 04:53:00,
2013-02-23 22:08:00,30.7,28.0,29.99,West,281,4.0,7.0,88,0.00,,,0.04,weatherlink.com 1.10,2013-02-24 05:08:00,
2013-02-23 22:23:00,30.8,28.0,29.99,West,259,2.0,5.0,88,0.00,,,0.04,weatherlink.com 1.10,2013-02-24 05:23:00,
2013-02-23 22:38:00,31.3,26.0,30.00,WNW,300,3.0,7.0,82,0.00,,,0.04,weatherlink.com 1.10,2013-02-24 05:38:00,
2013-02-23 22:53:00,33.2,27.0,30.01,NW,309,5.0,12.0,77,0.00,,,0.04,weatherlink.com 1.10,2013-02-24 05:53:00,
2013-02-23 23:08:00,33.7,27.0,30.01,NW,311,7.0,11.0,77,0.00,,,0.04,weatherlink.com 1.10,2013-02-24 06:08:00,
2013-02-23 23:23:00,31.8,27.0,30.02,WSW,238,4.0,5.0,82,0.00,,,0.04,weatherlink.com 1.10,2013-02-24 06:23:00,
2013-02-23 23:38:00,30.6,27.0,30.03,WNW,300,2.0,4.0,86,0.00,,,0.04,weatherlink.com 1.10,2013-02-24 06:38:00,
2013-02-23 23:53:00,31.3,27.0,30.03,WSW,246,1.0,9.0,85,0.00,,,0.04,weatherlink.com 1.10,2013-02-24 06:53:00,